sensor_id;sensor_type;location;lat;lon;timestamp;temperature;humidity
14331;DHT22;7249;49.376;11.080;2024-01-10T05:00:47;-7.80;99.90
14331;DHT22;7249;49.376;11.080;2024-01-10T05:03:13;-7.80;99.90
14331;DHT22;7249;49.376;11.080;2024-01-10T05:05:38;-7.80;99.90
14331;DHT22;7249;49.376;11.080;2024-01-10T05:08:04;-7.80;99.90
14331;DHT22;7249;49.376;11.080;2024-01-10T05:10:30;-7.80;99.90
14331;DHT22;7249;49.376;11.080;2024-01-10T05:12:56;-7.80;99.90
14331;DHT22;7249;49.376;11.080;2024-01-10T05:15:22;-7.80;99.90
14331;DHT22;7249;49.376;11.080;2024-01-10T05:17:47;-7.80;99.90
14331;DHT22;7249;49.376;11.080;2024-01-10T05:20:13;-7.80;99.90
14331;DHT22;7249;49.376;11.080;2024-01-10T05:22:40;-7.80;99.90
14331;DHT22;7249;49.376;11.080;2024-01-10T05:25:06;-7.80;99.90
14331;DHT22;7249;49.376;11.080;2024-01-10T05:27:32;-7.80;99.90
14331;DHT22;7249;49.376;11.080;2024-01-10T05:29:57;-7.80;99.90
14331;DHT22;7249;49.376;11.080;2024-01-10T05:32:25;-7.80;99.90
14331;DHT22;7249;49.376;11.080;2024-01-10T05:34:52;-7.80;99.90
14331;DHT22;7249;49.376;11.080;2024-01-10T05:37:18;-7.70;99.90
14331;DHT22;7249;49.376;11.080;2024-01-10T05:39:43;-7.70;99.90
14331;DHT22;7249;49.376;11.080;2024-01-10T05:42:09;-7.70;99.90
14331;DHT22;7249;49.376;11.080;2024-01-10T05:44:35;-7.80;99.90
14331;DHT22;7249;49.376;11.080;2024-01-10T05:47:00;-7.80;99.90
14331;DHT22;7249;49.376;11.080;2024-01-10T05:49:26;-7.90;99.90
14331;DHT22;7249;49.376;11.080;2024-01-10T05:51:52;-7.90;99.90
14331;DHT22;7249;49.376;11.080;2024-01-10T05:54:17;-7.90;99.90
14331;DHT22;7249;49.376;11.080;2024-01-10T05:56:43;-7.90;99.90
14331;DHT22;7249;49.376;11.080;2024-01-10T05:59:09;-7.80;99.90
14331;DHT22;7249;49.376;11.080;2024-01-10T06:01:37;-7.80;99.90
14331;DHT22;7249;49.376;11.080;2024-01-10T06:04:04;-7.80;99.90
14331;DHT22;7249;49.376;11.080;2024-01-10T06:06:30;-7.70;99.90
14331;DHT22;7249;49.376;11.080;2024-01-10T06:08:55;-7.70;99.90
14331;DHT22;7249;49.376;11.080;2024-01-10T06:11:21;-7.70;99.90
14331;DHT22;7249;49.376;11.080;2024-01-10T06:13:47;-7.70;99.90
14331;DHT22;7249;49.376;11.080;2024-01-10T06:16:13;-7.70;99.90
14331;DHT22;7249;49.376;11.080;2024-01-10T06:18:39;-7.70;99.90
14331;DHT22;7249;49.376;11.080;2024-01-10T06:21:05;-7.70;99.90
14331;DHT22;7249;49.376;11.080;2024-01-10T06:23:30;-7.70;99.90
14331;DHT22;7249;49.376;11.080;2024-01-10T06:25:56;-7.80;99.90
14331;DHT22;7249;49.376;11.080;2024-01-10T06:28:22;-7.70;99.90
14331;DHT22;7249;49.376;11.080;2024-01-10T06:30:49;-7.70;99.90
14331;DHT22;7249;49.376;11.080;2024-01-10T06:33:14;-7.80;99.90
14331;DHT22;7249;49.376;11.080;2024-01-10T06:35:41;-7.80;99.90
14331;DHT22;7249;49.376;11.080;2024-01-10T06:38:11;-7.80;99.90
14331;DHT22;7249;49.376;11.080;2024-01-10T06:40:37;-7.80;99.90
14331;DHT22;7249;49.376;11.080;2024-01-10T06:43:06;-7.80;99.90
14331;DHT22;7249;49.376;11.080;2024-01-10T06:45:34;-7.70;99.90
14331;DHT22;7249;49.376;11.080;2024-01-10T06:48:00;-7.80;99.90
14331;DHT22;7249;49.376;11.080;2024-01-10T06:50:25;-7.80;99.90
14331;DHT22;7249;49.376;11.080;2024-01-10T06:52:51;-7.70;99.90
14331;DHT22;7249;49.376;11.080;2024-01-10T06:55:16;-7.70;99.90
14331;DHT22;7249;49.376;11.080;2024-01-10T06:57:44;-7.70;99.90
14331;DHT22;7249;49.376;11.080;2024-01-10T07:00:09;-7.70;99.90
14331;DHT22;7249;49.376;11.080;2024-01-10T07:02:37;-7.70;99.90
14331;DHT22;7249;49.376;11.080;2024-01-10T07:05:07;-7.80;99.90
14331;DHT22;7249;49.376;11.080;2024-01-10T07:07:32;-7.80;99.90
14331;DHT22;7249;49.376;11.080;2024-01-10T07:10:01;-7.80;99.90
14331;DHT22;7249;49.376;11.080;2024-01-10T07:12:30;-7.70;99.90
14331;DHT22;7249;49.376;11.080;2024-01-10T07:14:56;-7.70;99.90
14331;DHT22;7249;49.376;11.080;2024-01-10T07:17:22;-7.70;99.90
14331;DHT22;7249;49.376;11.080;2024-01-10T07:19:48;-7.70;99.90
14331;DHT22;7249;49.376;11.080;2024-01-10T07:22:14;-7.70;99.90
14331;DHT22;7249;49.376;11.080;2024-01-10T07:24:39;-7.80;99.90
14331;DHT22;7249;49.376;11.080;2024-01-10T07:27:05;-7.80;99.90
14331;DHT22;7249;49.376;11.080;2024-01-10T07:29:32;-7.80;99.90
14331;DHT22;7249;49.376;11.080;2024-01-10T07:31:58;-7.80;99.90
14331;DHT22;7249;49.376;11.080;2024-01-10T07:34:23;-7.80;99.90
14331;DHT22;7249;49.376;11.080;2024-01-10T07:36:49;-7.80;99.90
14331;DHT22;7249;49.376;11.080;2024-01-10T07:39:14;-7.70;99.90
14331;DHT22;7249;49.376;11.080;2024-01-10T07:41:46;-7.70;99.90
14331;DHT22;7249;49.376;11.080;2024-01-10T07:44:15;-7.60;99.90
14331;DHT22;7249;49.376;11.080;2024-01-10T07:46:40;-7.60;99.90
14331;DHT22;7249;49.376;11.080;2024-01-10T07:49:06;-7.50;99.90
14331;DHT22;7249;49.376;11.080;2024-01-10T07:51:32;-7.50;99.90
14331;DHT22;7249;49.376;11.080;2024-01-10T07:53:58;-7.50;99.90
14331;DHT22;7249;49.376;11.080;2024-01-10T07:56:25;-7.50;99.90
14331;DHT22;7249;49.376;11.080;2024-01-10T07:58:50;-7.40;99.90
14331;DHT22;7249;49.376;11.080;2024-01-10T08:01:17;-7.40;99.90
14331;DHT22;7249;49.376;11.080;2024-01-10T08:03:43;-7.30;99.90
14331;DHT22;7249;49.376;11.080;2024-01-10T08:06:08;-7.20;99.90
14331;DHT22;7249;49.376;11.080;2024-01-10T08:08:35;-7.10;99.90
14331;DHT22;7249;49.376;11.080;2024-01-10T08:11:02;-7.00;99.90
14331;DHT22;7249;49.376;11.080;2024-01-10T08:13:27;-7.00;99.90
14331;DHT22;7249;49.376;11.080;2024-01-10T08:15:54;-6.90;99.90
14331;DHT22;7249;49.376;11.080;2024-01-10T08:18:20;-6.90;99.90
14331;DHT22;7249;49.376;11.080;2024-01-10T08:20:46;-6.80;99.90
14331;DHT22;7249;49.376;11.080;2024-01-10T08:23:11;-6.70;99.90
14331;DHT22;7249;49.376;11.080;2024-01-10T08:25:37;-6.60;99.90
14331;DHT22;7249;49.376;11.080;2024-01-10T08:28:03;-6.50;99.90
14331;DHT22;7249;49.376;11.080;2024-01-10T08:30:29;-6.40;99.90
14331;DHT22;7249;49.376;11.080;2024-01-10T08:32:55;-6.30;99.90
14331;DHT22;7249;49.376;11.080;2024-01-10T08:35:20;-6.30;99.90
14331;DHT22;7249;49.376;11.080;2024-01-10T08:37:46;-6.20;99.90
14331;DHT22;7249;49.376;11.080;2024-01-10T08:40:12;-6.10;99.90
14331;DHT22;7249;49.376;11.080;2024-01-10T08:42:40;-6.00;99.90
14331;DHT22;7249;49.376;11.080;2024-01-10T08:45:06;-5.90;99.90
14331;DHT22;7249;49.376;11.080;2024-01-10T08:47:35;-5.90;99.90
14331;DHT22;7249;49.376;11.080;2024-01-10T08:50:01;-5.80;99.90
14331;DHT22;7249;49.376;11.080;2024-01-10T08:52:27;-5.70;99.90
14331;DHT22;7249;49.376;11.080;2024-01-10T08:54:53;-5.60;99.90
14331;DHT22;7249;49.376;11.080;2024-01-10T08:57:18;-5.50;99.90
14331;DHT22;7249;49.376;11.080;2024-01-10T08:59:44;-5.40;99.90
14331;DHT22;7249;49.376;11.080;2024-01-10T09:02:10;-5.30;99.90
14331;DHT22;7249;49.376;11.080;2024-01-10T09:04:35;-5.10;99.90
14331;DHT22;7249;49.376;11.080;2024-01-10T09:07:01;-5.00;99.90
14331;DHT22;7249;49.376;11.080;2024-01-10T09:09:27;-5.00;99.90
14331;DHT22;7249;49.376;11.080;2024-01-10T09:11:53;-4.80;99.90
14331;DHT22;7249;49.376;11.080;2024-01-10T09:14:18;-4.70;99.90
14331;DHT22;7249;49.376;11.080;2024-01-10T09:16:45;-4.60;99.90
14331;DHT22;7249;49.376;11.080;2024-01-10T09:19:10;-4.40;99.90
14331;DHT22;7249;49.376;11.080;2024-01-10T09:21:36;-4.30;99.90
14331;DHT22;7249;49.376;11.080;2024-01-10T09:24:02;-4.20;99.90
14331;DHT22;7249;49.376;11.080;2024-01-10T09:26:30;-4.10;99.90
14331;DHT22;7249;49.376;11.080;2024-01-10T09:28:56;-4.00;99.90
14331;DHT22;7249;49.376;11.080;2024-01-10T09:31:22;-3.90;99.90
14331;DHT22;7249;49.376;11.080;2024-01-10T09:33:47;-3.80;99.90
14331;DHT22;7249;49.376;11.080;2024-01-10T09:36:13;-3.70;99.90
14331;DHT22;7249;49.376;11.080;2024-01-10T09:38:40;-3.60;99.90
14331;DHT22;7249;49.376;11.080;2024-01-10T09:41:05;-3.50;99.90
14331;DHT22;7249;49.376;11.080;2024-01-10T09:43:31;-3.40;99.90
14331;DHT22;7249;49.376;11.080;2024-01-10T09:46:00;-3.30;99.90
14331;DHT22;7249;49.376;11.080;2024-01-10T09:48:26;-3.20;99.90
14331;DHT22;7249;49.376;11.080;2024-01-10T09:50:52;-3.10;99.90
14331;DHT22;7249;49.376;11.080;2024-01-10T09:53:27;-3.00;99.90
14331;DHT22;7249;49.376;11.080;2024-01-10T09:55:55;-3.00;99.90
14331;DHT22;7249;49.376;11.080;2024-01-10T09:58:26;-2.90;99.90
14331;DHT22;7249;49.376;11.080;2024-01-10T10:00:52;-2.80;99.90
14331;DHT22;7249;49.376;11.080;2024-01-10T10:03:18;-2.70;99.90
14331;DHT22;7249;49.376;11.080;2024-01-10T10:05:44;-2.60;99.90
14331;DHT22;7249;49.376;11.080;2024-01-10T10:08:12;-2.40;99.90
14331;DHT22;7249;49.376;11.080;2024-01-10T10:10:40;-2.30;99.90
14331;DHT22;7249;49.376;11.080;2024-01-10T10:13:10;-2.10;99.90
14331;DHT22;7249;49.376;11.080;2024-01-10T10:15:40;-1.90;99.90
14331;DHT22;7249;49.376;11.080;2024-01-10T10:18:06;-1.70;99.90
14331;DHT22;7249;49.376;11.080;2024-01-10T10:20:31;-1.40;99.90
14331;DHT22;7249;49.376;11.080;2024-01-10T10:23:04;-1.20;99.90
14331;DHT22;7249;49.376;11.080;2024-01-10T10:25:42;-0.90;99.90
14331;DHT22;7249;49.376;11.080;2024-01-10T10:28:08;-0.70;99.90
14331;DHT22;7249;49.376;11.080;2024-01-10T10:30:34;-0.50;99.90
14331;DHT22;7249;49.376;11.080;2024-01-10T10:33:01;-0.30;99.90
14331;DHT22;7249;49.376;11.080;2024-01-10T10:35:27;-0.20;99.90
14331;DHT22;7249;49.376;11.080;2024-01-10T10:37:53;0.00;99.90
14331;DHT22;7249;49.376;11.080;2024-01-10T10:40:20;0.10;99.90
14331;DHT22;7249;49.376;11.080;2024-01-10T10:42:50;0.20;99.90
14331;DHT22;7249;49.376;11.080;2024-01-10T10:45:18;0.40;99.90
14331;DHT22;7249;49.376;11.080;2024-01-10T10:47:46;0.50;99.90
14331;DHT22;7249;49.376;11.080;2024-01-10T10:50:20;0.60;99.90
14331;DHT22;7249;49.376;11.080;2024-01-10T10:52:47;0.80;99.90
14331;DHT22;7249;49.376;11.080;2024-01-10T10:55:15;0.90;99.90
14331;DHT22;7249;49.376;11.080;2024-01-10T10:57:46;1.00;99.90
14331;DHT22;7249;49.376;11.080;2024-01-10T11:00:22;1.10;99.90
14331;DHT22;7249;49.376;11.080;2024-01-10T11:02:53;1.30;99.90
14331;DHT22;7249;49.376;11.080;2024-01-10T11:05:20;1.50;99.90
14331;DHT22;7249;49.376;11.080;2024-01-10T11:07:47;1.50;99.90
14331;DHT22;7249;49.376;11.080;2024-01-10T11:10:34;1.60;99.90
14331;DHT22;7249;49.376;11.080;2024-01-10T11:24:01;1.90;99.90
14331;DHT22;7249;49.376;11.080;2024-01-10T11:26:28;1.90;99.90
14331;DHT22;7249;49.376;11.080;2024-01-10T11:28:53;1.80;99.90
14331;DHT22;7249;49.376;11.080;2024-01-10T11:31:29;1.80;99.90
14331;DHT22;7249;49.376;11.080;2024-01-10T11:33:56;1.70;99.90
14331;DHT22;7249;49.376;11.080;2024-01-10T11:36:22;1.70;99.90
14331;DHT22;7249;49.376;11.080;2024-01-10T11:46:50;1.50;99.90
14331;DHT22;7249;49.376;11.080;2024-01-10T11:49:21;1.50;99.90
14331;DHT22;7249;49.376;11.080;2024-01-10T11:51:50;1.50;99.90
14331;DHT22;7249;49.376;11.080;2024-01-10T11:54:43;1.40;99.90
14331;DHT22;7249;49.376;11.080;2024-01-10T11:57:11;1.40;99.90
14331;DHT22;7249;49.376;11.080;2024-01-10T11:59:38;1.40;99.90
14331;DHT22;7249;49.376;11.080;2024-01-10T12:02:04;1.30;99.90
14331;DHT22;7249;49.376;11.080;2024-01-10T12:04:32;1.30;99.90
14331;DHT22;7249;49.376;11.080;2024-01-10T12:06:57;1.40;99.90
14331;DHT22;7249;49.376;11.080;2024-01-10T12:09:23;1.40;99.90
14331;DHT22;7249;49.376;11.080;2024-01-10T12:11:50;1.40;99.90
14331;DHT22;7249;49.376;11.080;2024-01-10T12:14:16;1.40;99.90
14331;DHT22;7249;49.376;11.080;2024-01-10T12:16:42;1.40;99.90
14331;DHT22;7249;49.376;11.080;2024-01-10T12:19:08;1.40;99.90
14331;DHT22;7249;49.376;11.080;2024-01-10T12:21:34;1.50;99.90
14331;DHT22;7249;49.376;11.080;2024-01-10T12:23:59;1.50;99.90
14331;DHT22;7249;49.376;11.080;2024-01-10T12:26:25;1.60;99.90
14331;DHT22;7249;49.376;11.080;2024-01-10T12:28:57;1.60;99.90
14331;DHT22;7249;49.376;11.080;2024-01-10T12:31:27;1.50;99.90
14331;DHT22;7249;49.376;11.080;2024-01-10T12:33:54;1.50;99.90
14331;DHT22;7249;49.376;11.080;2024-01-10T12:36:20;1.50;99.90
14331;DHT22;7249;49.376;11.080;2024-01-10T12:38:46;1.40;99.90
14331;DHT22;7249;49.376;11.080;2024-01-10T12:41:12;1.40;99.90
14331;DHT22;7249;49.376;11.080;2024-01-10T12:43:39;1.40;99.90
14331;DHT22;7249;49.376;11.080;2024-01-10T12:46:10;1.40;99.90
14331;DHT22;7249;49.376;11.080;2024-01-10T12:48:39;1.40;99.90
14331;DHT22;7249;49.376;11.080;2024-01-10T12:51:15;1.40;99.90
14331;DHT22;7249;49.376;11.080;2024-01-10T12:53:43;1.40;99.90
14331;DHT22;7249;49.376;11.080;2024-01-10T12:56:10;1.40;99.90
14331;DHT22;7249;49.376;11.080;2024-01-10T12:58:39;1.30;99.90
14331;DHT22;7249;49.376;11.080;2024-01-10T13:01:08;1.40;99.90
14331;DHT22;7249;49.376;11.080;2024-01-10T13:03:34;1.40;99.90
14331;DHT22;7249;49.376;11.080;2024-01-10T13:06:00;1.40;99.90
14331;DHT22;7249;49.376;11.080;2024-01-10T13:08:26;1.30;99.90
14331;DHT22;7249;49.376;11.080;2024-01-10T13:10:52;1.40;99.90
14331;DHT22;7249;49.376;11.080;2024-01-10T13:13:19;1.40;99.90
14331;DHT22;7249;49.376;11.080;2024-01-10T13:15:49;1.30;99.90
14331;DHT22;7249;49.376;11.080;2024-01-10T13:18:15;1.30;99.90
14331;DHT22;7249;49.376;11.080;2024-01-10T13:20:43;1.30;99.90
14331;DHT22;7249;49.376;11.080;2024-01-10T13:23:09;1.40;99.90
14331;DHT22;7249;49.376;11.080;2024-01-10T13:25:35;1.40;99.90
14331;DHT22;7249;49.376;11.080;2024-01-10T13:28:03;1.40;99.90
14331;DHT22;7249;49.376;11.080;2024-01-10T13:30:28;1.40;99.90
14331;DHT22;7249;49.376;11.080;2024-01-10T13:32:54;1.40;99.90
14331;DHT22;7249;49.376;11.080;2024-01-10T13:35:20;1.50;99.90
14331;DHT22;7249;49.376;11.080;2024-01-10T13:37:46;1.60;99.90
14331;DHT22;7249;49.376;11.080;2024-01-10T13:40:12;1.70;99.90
14331;DHT22;7249;49.376;11.080;2024-01-10T13:42:41;1.80;99.90
14331;DHT22;7249;49.376;11.080;2024-01-10T13:45:08;1.90;99.90
14331;DHT22;7249;49.376;11.080;2024-01-10T13:47:38;2.00;99.90
14331;DHT22;7249;49.376;11.080;2024-01-10T13:50:05;2.10;99.90
14331;DHT22;7249;49.376;11.080;2024-01-10T13:52:32;2.10;99.90
14331;DHT22;7249;49.376;11.080;2024-01-10T13:54:57;2.30;99.90
14331;DHT22;7249;49.376;11.080;2024-01-10T13:57:23;2.30;99.90
14331;DHT22;7249;49.376;11.080;2024-01-10T13:59:49;2.30;99.90
14331;DHT22;7249;49.376;11.080;2024-01-10T14:02:15;2.20;99.90
14331;DHT22;7249;49.376;11.080;2024-01-10T14:04:44;2.20;99.90
14331;DHT22;7249;49.376;11.080;2024-01-10T14:07:10;2.10;99.90
14331;DHT22;7249;49.376;11.080;2024-01-10T14:09:36;2.00;99.90
14331;DHT22;7249;49.376;11.080;2024-01-10T14:12:03;2.00;99.90
14331;DHT22;7249;49.376;11.080;2024-01-10T14:14:29;1.90;99.90
14331;DHT22;7249;49.376;11.080;2024-01-10T14:16:54;1.80;99.90
14331;DHT22;7249;49.376;11.080;2024-01-10T14:19:20;1.80;99.90
14331;DHT22;7249;49.376;11.080;2024-01-10T14:21:45;1.70;99.90
14331;DHT22;7249;49.376;11.080;2024-01-10T14:24:12;1.60;99.90
14331;DHT22;7249;49.376;11.080;2024-01-10T14:26:37;1.60;99.90
14331;DHT22;7249;49.376;11.080;2024-01-10T14:29:03;1.50;99.90
14331;DHT22;7249;49.376;11.080;2024-01-10T14:31:29;1.40;99.90
14331;DHT22;7249;49.376;11.080;2024-01-10T14:33:54;1.50;99.90
14331;DHT22;7249;49.376;11.080;2024-01-10T14:36:20;1.40;99.90
14331;DHT22;7249;49.376;11.080;2024-01-10T14:38:46;1.40;99.90
14331;DHT22;7249;49.376;11.080;2024-01-10T14:41:12;1.30;99.90
14331;DHT22;7249;49.376;11.080;2024-01-10T14:43:37;1.30;99.90
14331;DHT22;7249;49.376;11.080;2024-01-10T14:46:04;1.20;99.90
14331;DHT22;7249;49.376;11.080;2024-01-10T14:48:34;1.20;99.90
14331;DHT22;7249;49.376;11.080;2024-01-10T14:51:00;1.10;99.90
14331;DHT22;7249;49.376;11.080;2024-01-10T14:53:26;1.10;99.90
14331;DHT22;7249;49.376;11.080;2024-01-10T14:55:52;1.10;99.90
14331;DHT22;7249;49.376;11.080;2024-01-10T14:58:18;1.00;99.90
14331;DHT22;7249;49.376;11.080;2024-01-10T15:00:44;1.00;99.90
14331;DHT22;7249;49.376;11.080;2024-01-10T15:03:10;1.00;99.90
14331;DHT22;7249;49.376;11.080;2024-01-10T15:05:36;0.90;99.90
14331;DHT22;7249;49.376;11.080;2024-01-10T15:08:02;0.80;99.90
14331;DHT22;7249;49.376;11.080;2024-01-10T15:10:27;0.80;99.90
14331;DHT22;7249;49.376;11.080;2024-01-10T15:12:53;0.70;99.90
14331;DHT22;7249;49.376;11.080;2024-01-10T15:15:19;0.70;99.90
14331;DHT22;7249;49.376;11.080;2024-01-10T15:17:45;0.60;99.90
14331;DHT22;7249;49.376;11.080;2024-01-10T15:20:11;0.50;99.90
14331;DHT22;7249;49.376;11.080;2024-01-10T15:22:37;0.40;99.90
14331;DHT22;7249;49.376;11.080;2024-01-10T15:25:05;0.30;99.90
14331;DHT22;7249;49.376;11.080;2024-01-10T15:27:31;0.20;99.90
14331;DHT22;7249;49.376;11.080;2024-01-10T15:29:58;0.10;99.90
14331;DHT22;7249;49.376;11.080;2024-01-10T15:32:23;0.10;99.90
14331;DHT22;7249;49.376;11.080;2024-01-10T15:34:50;-0.10;99.90
14331;DHT22;7249;49.376;11.080;2024-01-10T15:37:15;-0.10;99.90
14331;DHT22;7249;49.376;11.080;2024-01-10T15:39:41;-0.20;99.90
14331;DHT22;7249;49.376;11.080;2024-01-10T15:42:07;-0.30;99.90
14331;DHT22;7249;49.376;11.080;2024-01-10T15:44:41;-0.40;99.90
14331;DHT22;7249;49.376;11.080;2024-01-10T15:47:07;-0.40;99.90
14331;DHT22;7249;49.376;11.080;2024-01-10T15:49:33;-0.50;99.90
14331;DHT22;7249;49.376;11.080;2024-01-10T15:51:58;-0.60;99.90
14331;DHT22;7249;49.376;11.080;2024-01-10T15:54:24;-0.70;99.90
14331;DHT22;7249;49.376;11.080;2024-01-10T15:56:50;-0.70;99.90
14331;DHT22;7249;49.376;11.080;2024-01-10T15:59:16;-0.80;99.90
14331;DHT22;7249;49.376;11.080;2024-01-10T16:01:42;-0.80;99.90
14331;DHT22;7249;49.376;11.080;2024-01-10T16:04:09;-0.90;99.90
14331;DHT22;7249;49.376;11.080;2024-01-10T16:06:35;-1.00;99.90
14331;DHT22;7249;49.376;11.080;2024-01-10T16:09:03;-1.00;99.90
14331;DHT22;7249;49.376;11.080;2024-01-10T16:11:30;-1.10;99.90
14331;DHT22;7249;49.376;11.080;2024-01-10T16:13:56;-1.20;99.90
14331;DHT22;7249;49.376;11.080;2024-01-10T16:16:23;-1.20;99.90
14331;DHT22;7249;49.376;11.080;2024-01-10T16:18:51;-1.30;99.90
14331;DHT22;7249;49.376;11.080;2024-01-10T16:21:18;-1.30;99.90
14331;DHT22;7249;49.376;11.080;2024-01-10T16:23:44;-1.30;99.90
14331;DHT22;7249;49.376;11.080;2024-01-10T16:26:10;-1.40;99.90
14331;DHT22;7249;49.376;11.080;2024-01-10T16:28:36;-1.40;99.90
14331;DHT22;7249;49.376;11.080;2024-01-10T16:31:01;-1.40;99.90
14331;DHT22;7249;49.376;11.080;2024-01-10T16:33:27;-1.50;99.90
14331;DHT22;7249;49.376;11.080;2024-01-10T16:35:53;-1.50;99.90
14331;DHT22;7249;49.376;11.080;2024-01-10T16:38:18;-1.60;99.90
14331;DHT22;7249;49.376;11.080;2024-01-10T16:40:44;-1.60;99.90
14331;DHT22;7249;49.376;11.080;2024-01-10T16:43:09;-1.60;99.90
14331;DHT22;7249;49.376;11.080;2024-01-10T16:45:35;-1.60;99.90
14331;DHT22;7249;49.376;11.080;2024-01-10T16:48:01;-1.70;99.90
14331;DHT22;7249;49.376;11.080;2024-01-10T16:50:26;-1.80;99.90
14331;DHT22;7249;49.376;11.080;2024-01-10T16:52:59;-1.80;99.90
14331;DHT22;7249;49.376;11.080;2024-01-10T16:55:25;-1.80;99.90
14331;DHT22;7249;49.376;11.080;2024-01-10T16:57:51;-1.90;99.90
14331;DHT22;7249;49.376;11.080;2024-01-10T17:00:17;-2.00;99.90
14331;DHT22;7249;49.376;11.080;2024-01-10T17:02:42;-2.00;99.90
14331;DHT22;7249;49.376;11.080;2024-01-10T17:05:09;-2.00;99.90
14331;DHT22;7249;49.376;11.080;2024-01-10T17:07:34;-2.00;99.90
14331;DHT22;7249;49.376;11.080;2024-01-10T17:10:02;-2.00;99.90
14331;DHT22;7249;49.376;11.080;2024-01-10T17:12:29;-2.10;99.90
14331;DHT22;7249;49.376;11.080;2024-01-10T17:14:55;-2.10;99.90
14331;DHT22;7249;49.376;11.080;2024-01-10T17:17:20;-2.10;99.90
14331;DHT22;7249;49.376;11.080;2024-01-10T17:19:46;-2.20;99.90
14331;DHT22;7249;49.376;11.080;2024-01-10T17:22:12;-2.20;99.90
14331;DHT22;7249;49.376;11.080;2024-01-10T17:24:38;-2.20;99.90
14331;DHT22;7249;49.376;11.080;2024-01-10T17:27:04;-2.20;99.90
14331;DHT22;7249;49.376;11.080;2024-01-10T17:29:30;-2.30;99.90
14331;DHT22;7249;49.376;11.080;2024-01-10T17:31:55;-2.30;99.90
14331;DHT22;7249;49.376;11.080;2024-01-10T17:34:21;-2.30;99.90
14331;DHT22;7249;49.376;11.080;2024-01-10T17:36:47;-2.40;99.90
14331;DHT22;7249;49.376;11.080;2024-01-10T17:39:13;-2.40;99.90
14331;DHT22;7249;49.376;11.080;2024-01-10T17:41:39;-2.50;99.90
14331;DHT22;7249;49.376;11.080;2024-01-10T17:44:05;-2.50;99.90
14331;DHT22;7249;49.376;11.080;2024-01-10T17:46:31;-2.60;99.90
14331;DHT22;7249;49.376;11.080;2024-01-10T17:48:57;-2.60;99.90
14331;DHT22;7249;49.376;11.080;2024-01-10T17:51:23;-2.70;99.90
14331;DHT22;7249;49.376;11.080;2024-01-10T17:53:53;-2.70;99.90
14331;DHT22;7249;49.376;11.080;2024-01-10T17:56:18;-2.70;99.90
14331;DHT22;7249;49.376;11.080;2024-01-10T17:58:44;-2.80;99.90
14331;DHT22;7249;49.376;11.080;2024-01-10T18:01:10;-2.80;99.90
14331;DHT22;7249;49.376;11.080;2024-01-10T18:03:36;-2.80;99.90
14331;DHT22;7249;49.376;11.080;2024-01-10T18:06:01;-2.90;99.90
14331;DHT22;7249;49.376;11.080;2024-01-10T18:08:27;-2.90;99.90
14331;DHT22;7249;49.376;11.080;2024-01-10T18:10:53;-2.90;99.90
14331;DHT22;7249;49.376;11.080;2024-01-10T18:13:19;-2.90;99.90
14331;DHT22;7249;49.376;11.080;2024-01-10T18:15:45;-3.00;99.90
14331;DHT22;7249;49.376;11.080;2024-01-10T18:18:11;-3.00;99.90
14331;DHT22;7249;49.376;11.080;2024-01-10T18:20:37;-3.00;99.90
14331;DHT22;7249;49.376;11.080;2024-01-10T18:23:02;-3.00;99.90
14331;DHT22;7249;49.376;11.080;2024-01-10T18:25:28;-3.10;99.90
14331;DHT22;7249;49.376;11.080;2024-01-10T18:27:54;-3.10;99.90
14331;DHT22;7249;49.376;11.080;2024-01-10T18:30:19;-3.10;99.90
14331;DHT22;7249;49.376;11.080;2024-01-10T18:32:46;-3.20;99.90
14331;DHT22;7249;49.376;11.080;2024-01-10T18:35:12;-3.20;99.90
14331;DHT22;7249;49.376;11.080;2024-01-10T18:37:37;-3.20;99.90
14331;DHT22;7249;49.376;11.080;2024-01-10T18:40:04;-3.20;99.90
14331;DHT22;7249;49.376;11.080;2024-01-10T18:42:30;-3.20;99.90
14331;DHT22;7249;49.376;11.080;2024-01-10T18:44:56;-3.20;99.90
14331;DHT22;7249;49.376;11.080;2024-01-10T18:47:21;-3.30;99.90
14331;DHT22;7249;49.376;11.080;2024-01-10T18:49:47;-3.30;99.90
14331;DHT22;7249;49.376;11.080;2024-01-10T18:52:12;-3.30;99.90
14331;DHT22;7249;49.376;11.080;2024-01-10T18:54:39;-3.40;99.90
14331;DHT22;7249;49.376;11.080;2024-01-10T18:57:05;-3.50;99.90
14331;DHT22;7249;49.376;11.080;2024-01-10T18:59:36;-3.50;99.90
14331;DHT22;7249;49.376;11.080;2024-01-10T19:02:02;-3.50;99.90
14331;DHT22;7249;49.376;11.080;2024-01-10T19:04:27;-3.60;99.90
14331;DHT22;7249;49.376;11.080;2024-01-10T19:06:53;-3.60;99.90
14331;DHT22;7249;49.376;11.080;2024-01-10T19:09:20;-3.70;99.90
14331;DHT22;7249;49.376;11.080;2024-01-10T19:11:46;-3.70;99.90
14331;DHT22;7249;49.376;11.080;2024-01-10T19:14:12;-3.70;99.90
14331;DHT22;7249;49.376;11.080;2024-01-10T19:16:37;-3.70;99.90
14331;DHT22;7249;49.376;11.080;2024-01-10T19:19:04;-3.80;99.90
14331;DHT22;7249;49.376;11.080;2024-01-10T19:21:29;-3.80;99.90
14331;DHT22;7249;49.376;11.080;2024-01-10T19:23:55;-3.90;99.90
14331;DHT22;7249;49.376;11.080;2024-01-10T19:26:24;-3.90;99.90
14331;DHT22;7249;49.376;11.080;2024-01-10T19:28:50;-3.90;99.90
14331;DHT22;7249;49.376;11.080;2024-01-10T19:31:16;-4.00;99.90
14331;DHT22;7249;49.376;11.080;2024-01-10T19:33:42;-4.00;99.90
14331;DHT22;7249;49.376;11.080;2024-01-10T19:36:08;-4.00;99.90
14331;DHT22;7249;49.376;11.080;2024-01-10T19:38:33;-4.00;99.90
14331;DHT22;7249;49.376;11.080;2024-01-10T19:40:59;-4.10;99.90
14331;DHT22;7249;49.376;11.080;2024-01-10T19:43:25;-4.10;99.90
14331;DHT22;7249;49.376;11.080;2024-01-10T19:45:52;-4.20;99.90
14331;DHT22;7249;49.376;11.080;2024-01-10T19:48:18;-4.20;99.90
14331;DHT22;7249;49.376;11.080;2024-01-10T19:50:46;-4.20;99.90
14331;DHT22;7249;49.376;11.080;2024-01-10T19:53:12;-4.30;99.90
14331;DHT22;7249;49.376;11.080;2024-01-10T19:55:38;-4.30;99.90
14331;DHT22;7249;49.376;11.080;2024-01-10T19:58:04;-4.30;99.90
14331;DHT22;7249;49.376;11.080;2024-01-10T20:00:30;-4.30;99.90
14331;DHT22;7249;49.376;11.080;2024-01-10T20:02:55;-4.30;99.90
14331;DHT22;7249;49.376;11.080;2024-01-10T20:05:21;-4.40;99.90
14331;DHT22;7249;49.376;11.080;2024-01-10T20:07:46;-4.40;99.90
14331;DHT22;7249;49.376;11.080;2024-01-10T20:10:14;-4.40;99.90
14331;DHT22;7249;49.376;11.080;2024-01-10T20:12:40;-4.40;99.90
14331;DHT22;7249;49.376;11.080;2024-01-10T20:15:07;-4.40;99.90
14331;DHT22;7249;49.376;11.080;2024-01-10T20:17:33;-4.40;99.90
14331;DHT22;7249;49.376;11.080;2024-01-10T20:19:59;-4.50;99.90
14331;DHT22;7249;49.376;11.080;2024-01-10T20:22:25;-4.50;99.90
14331;DHT22;7249;49.376;11.080;2024-01-10T20:24:51;-4.50;99.90
14331;DHT22;7249;49.376;11.080;2024-01-10T20:27:17;-4.50;99.90
14331;DHT22;7249;49.376;11.080;2024-01-10T20:29:42;-4.50;99.90
14331;DHT22;7249;49.376;11.080;2024-01-10T20:32:13;-4.60;99.90
14331;DHT22;7249;49.376;11.080;2024-01-10T20:34:38;-4.60;99.90
14331;DHT22;7249;49.376;11.080;2024-01-10T20:37:04;-4.70;99.90
14331;DHT22;7249;49.376;11.080;2024-01-10T20:39:30;-4.70;99.90
14331;DHT22;7249;49.376;11.080;2024-01-10T20:41:55;-4.70;99.90
14331;DHT22;7249;49.376;11.080;2024-01-10T20:44:21;-4.70;99.90
14331;DHT22;7249;49.376;11.080;2024-01-10T20:46:47;-4.80;99.90
14331;DHT22;7249;49.376;11.080;2024-01-10T20:49:12;-4.80;99.90